createdAt,value
2023-05-03T00:01:11.274Z,82.40
2023-05-03T00:03:38.215Z,82.60
2023-05-03T00:06:12.608Z,82.70
2023-05-03T00:08:39.622Z,83.00
2023-05-03T00:11:06.758Z,82.90
2023-05-03T00:13:33.671Z,82.90
2023-05-03T00:16:01.067Z,82.90
2023-05-03T00:18:29.044Z,83.20
2023-05-03T00:20:57.003Z,83.30
2023-05-03T00:23:24.058Z,82.90
2023-05-03T00:25:58.190Z,83.30
2023-05-03T00:28:26.154Z,83.80
2023-05-03T00:30:53.631Z,83.70
2023-05-03T00:33:20.597Z,83.20
2023-05-03T00:35:47.476Z,83.30
2023-05-03T00:38:15.441Z,83.40
2023-05-03T00:40:43.046Z,83.80
2023-05-03T00:43:13.146Z,84.00
2023-05-03T00:45:40.183Z,84.00
2023-05-03T00:48:07.229Z,83.80
2023-05-03T00:50:36.667Z,84.00
2023-05-03T00:53:03.711Z,84.00
2023-05-03T00:55:33.638Z,84.20
2023-05-03T00:58:00.540Z,84.00
2023-05-03T01:00:27.504Z,84.10
2023-05-03T01:02:54.650Z,84.20
2023-05-03T01:05:22.948Z,84.40
2023-05-03T01:08:15.617Z,84.60
2023-05-03T01:10:56.694Z,85.60
2023-05-03T01:13:59.435Z,85.10
2023-05-03T01:16:41.208Z,86.40
2023-05-03T01:19:20.122Z,85.90
2023-05-03T01:22:02.222Z,85.80
2023-05-03T01:24:32.004Z,85.70
2023-05-03T01:26:59.355Z,85.70
2023-05-03T01:29:26.313Z,85.90
2023-05-03T01:32:21.608Z,86.00
2023-05-03T01:35:04.500Z,86.70
2023-05-03T01:37:32.956Z,85.80
2023-05-03T01:40:07.517Z,86.40
2023-05-03T01:42:36.958Z,85.90
2023-05-03T01:45:05.731Z,86.40
2023-05-03T01:47:33.069Z,86.10
2023-05-03T01:50:00.154Z,86.20
2023-05-03T01:52:27.554Z,86.40
2023-05-03T01:54:54.479Z,86.20
2023-05-03T01:57:21.418Z,86.30
2023-05-03T01:59:48.707Z,86.10
2023-05-03T02:02:15.702Z,86.40
2023-05-03T02:04:42.859Z,86.00
2023-05-03T02:07:09.973Z,85.90
2023-05-03T02:09:36.874Z,85.80
2023-05-03T02:12:03.907Z,86.10
2023-05-03T02:14:32.966Z,86.10
2023-05-03T02:17:00.616Z,86.20
2023-05-03T02:19:27.641Z,86.40
2023-05-03T02:21:54.570Z,86.40
2023-05-03T02:24:23.742Z,86.80
2023-05-03T02:26:50.998Z,86.90
2023-05-03T02:29:17.908Z,87.10
2023-05-03T02:31:45.751Z,87.10
2023-05-03T02:34:12.677Z,87.10
2023-05-03T02:36:39.645Z,87.10
2023-05-03T02:39:06.815Z,87.00
2023-05-03T02:41:33.786Z,87.30
2023-05-03T02:44:01.007Z,87.60
2023-05-03T02:46:28.148Z,87.50
2023-05-03T02:48:55.080Z,87.40
2023-05-03T02:51:21.996Z,87.20
2023-05-03T02:53:49.207Z,87.40
2023-05-03T02:56:16.152Z,87.40
2023-05-03T02:58:43.124Z,87.50
2023-05-03T03:01:11.477Z,87.60
2023-05-03T03:03:38.688Z,87.50
2023-05-03T03:06:05.951Z,87.60
2023-05-03T03:08:36.857Z,87.70
2023-05-03T03:11:06.141Z,87.60
2023-05-03T03:13:33.844Z,87.60
2023-05-03T03:16:02.202Z,87.80
2023-05-03T03:18:29.093Z,87.80
2023-05-03T03:20:55.998Z,87.80
2023-05-03T03:23:22.943Z,88.10
2023-05-03T03:25:49.867Z,88.30
2023-05-03T03:28:17.618Z,88.60
2023-05-03T03:30:45.193Z,88.40
2023-05-03T03:33:24.423Z,88.70
2023-05-03T03:35:59.865Z,89.00
2023-05-03T03:38:36.351Z,89.30
2023-05-03T03:41:07.975Z,89.00
2023-05-03T03:43:35.358Z,89.00
2023-05-03T03:46:07.939Z,89.20
2023-05-03T03:48:34.997Z,89.10
2023-05-03T03:51:01.906Z,89.50
2023-05-03T03:53:36.581Z,89.90
2023-05-03T03:56:04.766Z,90.00
2023-05-03T03:58:32.342Z,90.20
2023-05-03T04:01:00.746Z,90.20
2023-05-03T04:03:28.941Z,90.30
2023-05-03T04:05:55.929Z,90.40
2023-05-03T04:08:22.860Z,90.70
2023-05-03T04:10:50.721Z,90.80
2023-05-03T04:13:18.392Z,90.80
2023-05-03T04:15:49.611Z,90.90
2023-05-03T04:18:16.743Z,90.70
2023-05-03T04:20:43.839Z,90.60
2023-05-03T04:23:11.051Z,90.30
2023-05-03T04:25:38.797Z,90.20
2023-05-03T04:28:11.673Z,90.00
2023-05-03T04:30:44.504Z,89.90
2023-05-03T04:33:13.829Z,89.80
2023-05-03T04:35:41.521Z,89.30
2023-05-03T04:38:12.544Z,89.20
2023-05-03T04:40:41.020Z,89.30
2023-05-03T04:43:09.876Z,89.30
2023-05-03T04:45:41.719Z,89.20
2023-05-03T04:48:12.956Z,89.10
2023-05-03T04:50:40.973Z,88.80
2023-05-03T04:53:10.725Z,88.70
2023-05-03T04:55:41.617Z,88.70
2023-05-03T04:58:09.270Z,88.80
2023-05-03T05:00:37.803Z,88.70
2023-05-03T05:03:11.810Z,88.60
2023-05-03T05:05:39.463Z,88.40
2023-05-03T05:08:08.838Z,88.60
2023-05-03T05:10:44.074Z,88.50
2023-05-03T05:13:15.524Z,88.60
2023-05-03T05:15:42.535Z,88.30
2023-05-03T05:18:11.474Z,88.30
2023-05-03T05:20:40.471Z,88.40
2023-05-03T05:23:08.261Z,88.40
2023-05-03T05:25:35.775Z,88.20
2023-05-03T05:28:03.723Z,88.30
2023-05-03T05:30:31.488Z,88.60
2023-05-03T05:32:59.137Z,88.20
2023-05-03T05:35:26.271Z,88.40
2023-05-03T05:37:53.173Z,88.40
2023-05-03T05:40:20.225Z,88.40
2023-05-03T05:42:52.156Z,88.40
2023-05-03T05:45:21.204Z,88.50
2023-05-03T05:47:48.998Z,88.60
2023-05-03T05:50:18.509Z,88.70
2023-05-03T05:52:53.030Z,88.50
2023-05-03T05:57:48.370Z,88.90
2023-05-03T06:00:19.667Z,89.00
2023-05-03T06:02:46.689Z,88.80
2023-05-03T06:05:18.436Z,88.90
2023-05-03T06:07:45.488Z,88.90
2023-05-03T06:10:12.388Z,89.10
2023-05-03T06:12:43.445Z,89.00
2023-05-03T06:15:16.012Z,89.20
2023-05-03T06:17:45.250Z,89.20
2023-05-03T06:20:12.230Z,89.50
2023-05-03T06:22:40.577Z,89.50
2023-05-03T06:25:08.767Z,89.40
2023-05-03T06:27:38.308Z,89.40
2023-05-03T06:30:06.976Z,89.60
2023-05-03T06:32:34.383Z,89.70
2023-05-03T06:35:02.233Z,89.70
2023-05-03T06:37:29.230Z,89.40
2023-05-03T06:39:56.316Z,89.20
2023-05-03T06:42:23.814Z,89.30
2023-05-03T06:45:03.714Z,88.90
2023-05-03T06:47:30.690Z,88.50
2023-05-03T06:49:57.588Z,88.10
2023-05-03T06:52:24.516Z,88.10
2023-05-03T06:54:52.016Z,88.00
2023-05-03T06:57:18.852Z,87.50
2023-05-03T06:59:45.706Z,87.20
2023-05-03T07:02:12.608Z,86.90
2023-05-03T07:04:39.734Z,86.90
2023-05-03T07:07:06.781Z,86.60
2023-05-03T07:09:42.708Z,86.50
2023-05-03T07:12:11.181Z,86.40
2023-05-03T07:14:39.690Z,85.90
2023-05-03T07:17:06.647Z,85.50
2023-05-03T07:19:33.517Z,85.30
2023-05-03T07:22:00.561Z,84.80
2023-05-03T07:24:27.428Z,84.00
2023-05-03T07:26:54.364Z,83.80
2023-05-03T07:29:21.660Z,83.40
2023-05-03T07:31:48.958Z,83.10
2023-05-03T07:34:16.784Z,82.10
2023-05-03T07:36:43.697Z,80.90
2023-05-03T07:39:10.777Z,81.30
2023-05-03T07:41:37.614Z,81.20
2023-05-03T07:44:04.720Z,80.40
2023-05-03T07:46:34.905Z,79.10
2023-05-03T07:49:04.088Z,79.20
2023-05-03T07:51:38.307Z,79.50
2023-05-03T07:54:05.878Z,77.70
2023-05-03T07:56:32.807Z,77.70
2023-05-03T07:59:09.141Z,78.00
2023-05-03T08:01:37.804Z,78.10
2023-05-03T08:04:05.195Z,78.10
2023-05-03T08:06:35.396Z,78.10
2023-05-03T08:09:02.418Z,78.00
2023-05-03T08:11:29.343Z,77.90
2023-05-03T08:13:56.623Z,78.60
2023-05-03T08:16:23.799Z,78.90
2023-05-03T08:18:50.691Z,79.20
2023-05-03T08:21:17.698Z,77.40
2023-05-03T08:23:45.082Z,77.60
2023-05-03T08:26:14.198Z,76.40
2023-05-03T08:28:41.552Z,74.90
2023-05-03T08:31:08.672Z,74.90
2023-05-03T08:33:35.822Z,74.20
2023-05-03T08:36:03.043Z,73.90
2023-05-03T08:38:30.019Z,73.00
2023-05-03T08:40:59.787Z,72.80
2023-05-03T08:43:28.844Z,72.90
2023-05-03T08:45:55.947Z,72.60
2023-05-03T08:48:23.187Z,71.60
2023-05-03T08:50:52.709Z,71.20
2023-05-03T08:53:19.594Z,70.70
2023-05-03T08:55:46.479Z,70.60
2023-05-03T08:58:13.781Z,70.00
2023-05-03T09:00:44.747Z,69.50
2023-05-03T09:03:12.253Z,68.80
2023-05-03T09:05:40.499Z,68.90
2023-05-03T09:08:13.481Z,69.60
2023-05-03T09:10:42.130Z,69.40
2023-05-03T09:13:10.428Z,70.20
2023-05-03T09:15:37.527Z,68.80
2023-05-03T09:18:21.395Z,69.00
2023-05-03T09:20:53.238Z,68.60
2023-05-03T09:23:29.775Z,69.50
2023-05-03T09:25:57.852Z,70.00
2023-05-03T09:28:26.000Z,68.60
2023-05-03T09:31:10.829Z,66.70
2023-05-03T09:33:39.032Z,65.40
2023-05-03T09:36:06.545Z,64.20
2023-05-03T09:38:36.851Z,65.30
2023-05-03T09:41:07.097Z,65.80
2023-05-03T09:43:38.034Z,65.60
2023-05-03T09:46:13.263Z,66.00
2023-05-03T09:48:41.176Z,64.20
2023-05-03T09:51:09.689Z,64.00
2023-05-03T09:53:38.867Z,63.40
2023-05-03T09:56:12.534Z,63.10
2023-05-03T09:58:41.330Z,62.80
2023-05-03T10:01:10.540Z,63.20
2023-05-03T10:03:50.557Z,63.70
2023-05-03T10:06:30.144Z,62.60
2023-05-03T10:09:16.933Z,62.00
2023-05-03T10:11:52.336Z,60.60
2023-05-03T10:14:22.711Z,60.80
2023-05-03T10:16:53.867Z,60.00
2023-05-03T10:19:34.734Z,60.60
2023-05-03T10:22:14.566Z,60.60
2023-05-03T10:25:08.544Z,61.20
2023-05-03T10:27:44.494Z,60.40
2023-05-03T10:30:28.833Z,61.20
2023-05-03T10:32:55.842Z,60.00
2023-05-03T10:35:27.795Z,61.40
2023-05-03T10:37:56.976Z,59.30
2023-05-03T10:40:23.951Z,58.20
2023-05-03T10:42:53.920Z,58.50
2023-05-03T10:45:28.546Z,58.90
2023-05-03T10:48:20.569Z,59.30
2023-05-03T10:50:47.872Z,59.20
2023-05-03T10:53:36.017Z,60.00
2023-05-03T10:56:15.265Z,60.20
2023-05-03T10:58:48.795Z,59.60
2023-05-03T11:01:18.350Z,59.60
2023-05-03T11:04:02.962Z,59.40
2023-05-03T11:06:38.437Z,58.40
2023-05-03T11:09:07.103Z,59.00
2023-05-03T11:11:37.026Z,58.70
2023-05-03T11:14:05.708Z,58.40
2023-05-03T11:16:32.709Z,58.70
2023-05-03T11:19:01.259Z,58.50
2023-05-03T11:21:28.501Z,58.70
2023-05-03T11:23:55.409Z,58.80
2023-05-03T11:26:26.141Z,58.50
2023-05-03T11:28:54.502Z,58.20
2023-05-03T11:31:22.572Z,58.10
2023-05-03T11:33:51.075Z,58.60
2023-05-03T11:36:17.978Z,58.10
2023-05-03T11:38:45.772Z,58.20
2023-05-03T11:41:17.476Z,57.30
2023-05-03T11:43:52.983Z,57.10
2023-05-03T11:46:28.047Z,56.40
2023-05-03T11:48:56.051Z,56.00
2023-05-03T11:51:24.626Z,56.80
2023-05-03T11:53:52.222Z,55.60
2023-05-03T11:56:20.623Z,56.60
2023-05-03T11:58:56.987Z,55.90
2023-05-03T12:01:25.783Z,55.40
2023-05-03T12:04:05.459Z,55.10
2023-05-03T12:06:36.030Z,53.80
2023-05-03T12:09:05.234Z,54.20
2023-05-03T12:11:44.117Z,51.90
2023-05-03T12:14:11.719Z,52.80
2023-05-03T12:16:51.642Z,53.50
2023-05-03T12:19:32.886Z,53.80
2023-05-03T12:22:18.102Z,53.60
2023-05-03T12:24:49.784Z,52.80
2023-05-03T12:27:19.093Z,52.40
2023-05-03T12:29:47.649Z,53.30
2023-05-03T12:32:15.108Z,52.90
2023-05-03T12:34:42.864Z,53.70
2023-05-03T12:37:11.721Z,53.30
2023-05-03T12:39:40.093Z,53.30
2023-05-03T12:42:09.357Z,53.50
2023-05-03T12:44:41.893Z,54.10
2023-05-03T12:47:10.549Z,53.60
2023-05-03T12:49:39.214Z,53.40
2023-05-03T12:52:35.426Z,53.60
2023-05-03T12:54:55.577Z,53.60
2023-05-03T12:57:24.309Z,53.30
2023-05-03T13:00:02.240Z,51.90
2023-05-03T13:05:00.807Z,51.50
2023-05-03T13:07:31.754Z,51.70
2023-05-03T13:12:30.849Z,52.40
2023-05-03T13:14:58.051Z,52.70
2023-05-03T13:17:25.360Z,52.90
2023-05-03T13:19:53.731Z,52.40
2023-05-03T13:22:20.767Z,52.80
2023-05-03T13:24:48.270Z,52.80
2023-05-03T13:27:16.380Z,52.90
2023-05-03T13:29:43.392Z,51.50
2023-05-03T13:32:10.474Z,52.30
2023-05-03T13:34:37.481Z,52.50
2023-05-03T13:37:04.829Z,52.60
2023-05-03T13:39:32.530Z,51.50
2023-05-03T13:41:59.655Z,50.60
2023-05-03T13:44:26.590Z,50.10
2023-05-03T13:46:53.983Z,50.50
2023-05-03T13:49:21.134Z,50.70
2023-05-03T13:51:48.165Z,51.00
2023-05-03T13:54:15.053Z,51.30
2023-05-03T13:56:42.984Z,51.10
2023-05-03T13:59:13.810Z,51.10
2023-05-03T14:01:43.124Z,50.80
2023-05-03T14:04:10.460Z,50.40
2023-05-03T14:06:40.254Z,50.40
2023-05-03T14:09:09.168Z,50.90
2023-05-03T14:11:36.140Z,51.10
2023-05-03T14:14:03.708Z,51.10
2023-05-03T14:16:40.750Z,50.60
2023-05-03T14:19:10.795Z,51.20
2023-05-03T14:21:38.263Z,50.70
2023-05-03T14:24:06.431Z,50.70
2023-05-03T14:26:34.057Z,50.80
2023-05-03T14:29:01.495Z,50.20
2023-05-03T14:31:28.606Z,50.70
2023-05-03T14:33:55.545Z,51.00
2023-05-03T14:36:22.975Z,51.20
2023-05-03T14:38:49.958Z,50.90
2023-05-03T14:41:17.015Z,50.60
2023-05-03T14:43:43.922Z,50.50
2023-05-03T14:46:10.978Z,50.40
2023-05-03T14:48:38.265Z,50.20
2023-05-03T14:51:05.718Z,50.80
2023-05-03T14:53:32.675Z,50.20
2023-05-03T14:55:59.683Z,49.60
2023-05-03T14:58:26.681Z,49.50
2023-05-03T15:00:53.778Z,49.30
2023-05-03T15:03:20.786Z,49.40
2023-05-03T15:05:49.748Z,48.80
2023-05-03T15:08:19.666Z,49.40
2023-05-03T15:10:47.666Z,49.50
2023-05-03T15:13:16.208Z,49.30
2023-05-03T15:15:43.835Z,49.50
2023-05-03T15:18:11.594Z,49.40
2023-05-03T15:20:39.138Z,49.30
2023-05-03T15:23:06.625Z,49.80
2023-05-03T15:25:33.539Z,49.40
2023-05-03T15:28:03.747Z,49.60
2023-05-03T15:30:32.160Z,49.90
2023-05-03T15:32:59.209Z,50.60
2023-05-03T15:35:26.223Z,50.40
2023-05-03T15:37:53.124Z,50.10
2023-05-03T15:40:21.984Z,50.20
2023-05-03T15:42:51.806Z,50.40
2023-05-03T15:45:18.995Z,50.30
2023-05-03T15:47:46.172Z,50.10
2023-05-03T15:50:13.373Z,50.30
2023-05-03T15:52:40.508Z,50.80
2023-05-03T15:55:09.471Z,50.30
2023-05-03T15:57:37.179Z,50.50
2023-05-03T16:00:15.076Z,50.80
2023-05-03T16:02:42.489Z,50.80
2023-05-03T16:05:11.139Z,50.90
2023-05-03T16:07:38.072Z,50.80
2023-05-03T16:10:06.423Z,51.20
2023-05-03T16:12:33.676Z,51.40
2023-05-03T16:15:00.954Z,51.80
2023-05-03T16:17:28.101Z,51.70
2023-05-03T16:19:55.020Z,52.10
2023-05-03T16:22:21.906Z,51.70
2023-05-03T16:24:48.792Z,51.70
2023-05-03T16:27:15.777Z,51.50
2023-05-03T16:29:42.724Z,51.70
2023-05-03T16:32:10.967Z,52.10
2023-05-03T16:34:38.125Z,52.60
2023-05-03T16:37:05.521Z,53.20
2023-05-03T16:39:32.795Z,53.50
2023-05-03T16:41:59.797Z,53.50
2023-05-03T16:44:26.729Z,53.30
2023-05-03T16:46:53.616Z,53.60
2023-05-03T16:49:20.591Z,53.40
2023-05-03T16:51:47.503Z,52.90
2023-05-03T16:54:16.730Z,52.80
2023-05-03T16:56:44.475Z,51.90
2023-05-03T16:59:11.744Z,51.30
2023-05-03T17:01:38.700Z,51.10
2023-05-03T17:04:06.553Z,51.10
2023-05-03T17:06:33.640Z,50.90
2023-05-03T17:09:00.982Z,50.80
2023-05-03T17:11:27.864Z,50.10
2023-05-03T17:13:55.032Z,50.00
2023-05-03T17:16:22.900Z,50.00
2023-05-03T17:18:50.323Z,49.70
2023-05-03T17:21:19.004Z,49.80
2023-05-03T17:23:46.646Z,50.20
2023-05-03T17:26:14.209Z,50.60
2023-05-03T17:28:41.602Z,50.80
2023-05-03T17:31:08.557Z,51.30
2023-05-03T17:33:36.090Z,52.20
2023-05-03T17:36:06.599Z,52.00
2023-05-03T17:38:34.718Z,52.50
2023-05-03T17:41:10.290Z,52.80
2023-05-03T17:43:37.879Z,53.50
2023-05-03T17:46:12.845Z,53.80
2023-05-03T17:48:47.369Z,54.30
2023-05-03T17:51:14.898Z,54.50
2023-05-03T17:53:43.015Z,55.00
2023-05-03T17:56:17.972Z,55.20
2023-05-03T17:58:45.466Z,55.50
2023-05-03T18:01:13.445Z,55.70
2023-05-03T18:03:43.740Z,55.90
2023-05-03T18:06:13.240Z,55.90
2023-05-03T18:08:41.448Z,56.50
2023-05-03T18:11:08.565Z,56.80
2023-05-03T18:13:36.489Z,57.00
2023-05-03T18:16:08.164Z,57.00
2023-05-03T18:18:35.219Z,57.40
2023-05-03T18:21:03.958Z,57.50
2023-05-03T18:23:32.102Z,57.80
2023-05-03T18:25:59.872Z,58.10
2023-05-03T18:28:27.553Z,58.10
2023-05-03T18:30:55.923Z,58.00
2023-05-03T18:33:23.155Z,57.90
2023-05-03T18:35:53.762Z,57.90
2023-05-03T18:38:21.644Z,58.20
2023-05-03T18:40:49.805Z,58.20
2023-05-03T18:43:16.904Z,58.30
2023-05-03T18:45:44.410Z,58.30
2023-05-03T18:48:11.962Z,58.50
2023-05-03T18:50:39.318Z,58.50
2023-05-03T18:53:06.743Z,58.50
2023-05-03T18:55:33.718Z,58.50
2023-05-03T18:58:01.426Z,58.60
2023-05-03T19:00:28.449Z,58.60
2023-05-03T19:02:55.380Z,58.80
2023-05-03T19:05:22.292Z,59.10
2023-05-03T19:07:49.598Z,59.40
2023-05-03T19:10:17.343Z,59.40
2023-05-03T19:12:44.653Z,59.70
2023-05-03T19:15:12.211Z,60.00
2023-05-03T19:17:41.715Z,60.40
2023-05-03T19:20:10.319Z,60.40
2023-05-03T19:22:37.638Z,60.60
2023-05-03T19:25:05.831Z,60.50
2023-05-03T19:27:33.018Z,60.70
2023-05-03T19:29:59.891Z,61.00
2023-05-03T19:32:26.836Z,61.60
2023-05-03T19:34:53.769Z,62.20
2023-05-03T19:37:20.669Z,62.00
2023-05-03T19:39:47.570Z,62.40
2023-05-03T19:42:14.450Z,62.50
2023-05-03T19:44:41.333Z,62.90
2023-05-03T19:47:08.637Z,62.80
2023-05-03T19:49:35.593Z,63.10
2023-05-03T19:52:04.467Z,63.60
2023-05-03T19:54:32.862Z,63.50
2023-05-03T19:57:07.129Z,63.50
2023-05-03T19:59:34.093Z,63.80
2023-05-03T20:02:01.078Z,63.80
2023-05-03T20:04:28.107Z,63.60
2023-05-03T20:06:56.153Z,63.60
2023-05-03T20:09:23.518Z,63.90
2023-05-03T20:11:58.787Z,64.00
2023-05-03T20:14:29.224Z,64.40
2023-05-03T20:16:57.201Z,64.20
2023-05-03T20:19:25.389Z,64.20
2023-05-03T20:21:52.663Z,64.70
2023-05-03T20:24:20.935Z,64.80
2023-05-03T20:26:47.807Z,65.10
2023-05-03T20:29:14.990Z,65.30
2023-05-03T20:31:41.984Z,65.70
2023-05-03T20:34:08.980Z,66.00
2023-05-03T20:36:35.854Z,66.10
2023-05-03T20:39:03.129Z,66.20
2023-05-03T20:41:30.038Z,66.50
2023-05-03T20:43:57.175Z,67.20
2023-05-03T20:46:24.140Z,67.50
2023-05-03T20:48:51.669Z,67.90
2023-05-03T20:51:18.577Z,68.20
2023-05-03T20:53:45.477Z,68.60
2023-05-03T20:56:12.464Z,68.90
2023-05-03T20:58:39.367Z,69.20
2023-05-03T21:01:07.917Z,69.30
2023-05-03T21:03:35.224Z,69.70
2023-05-03T21:06:02.508Z,70.30
2023-05-03T21:08:29.443Z,70.40
2023-05-03T21:10:56.414Z,70.60
2023-05-03T21:13:23.366Z,70.60
2023-05-03T21:15:50.910Z,70.40
2023-05-03T21:18:19.293Z,70.70
2023-05-03T21:20:46.556Z,71.40
2023-05-03T21:23:13.444Z,71.40
2023-05-03T21:25:40.394Z,71.80
2023-05-03T21:28:07.358Z,72.30
2023-05-03T21:30:34.251Z,71.90
2023-05-03T21:33:01.219Z,72.00
2023-05-03T21:35:28.372Z,72.00
2023-05-03T21:37:55.254Z,74.50
2023-05-03T21:40:22.379Z,73.90
2023-05-03T21:42:52.390Z,73.50
2023-05-03T21:45:19.925Z,73.10
2023-05-03T21:47:46.947Z,74.00
2023-05-03T21:50:14.088Z,73.90
2023-05-03T21:52:41.135Z,73.90
2023-05-03T21:55:08.670Z,74.00
2023-05-03T21:57:35.623Z,73.90
2023-05-03T22:00:02.743Z,73.80
2023-05-03T22:02:35.471Z,73.70
2023-05-03T22:05:02.429Z,74.20
2023-05-03T22:07:29.312Z,74.50
2023-05-03T22:09:56.195Z,74.80
2023-05-03T22:12:24.597Z,75.00
2023-05-03T22:14:52.260Z,75.20
2023-05-03T22:17:19.180Z,74.70
2023-05-03T22:19:46.062Z,75.10
2023-05-03T22:22:12.972Z,75.20
2023-05-03T22:24:40.665Z,75.40
2023-05-03T22:27:07.776Z,75.80
2023-05-03T22:29:34.737Z,76.10
2023-05-03T22:32:01.790Z,76.00
2023-05-03T22:34:29.193Z,76.10
2023-05-03T22:36:56.367Z,76.00
2023-05-03T22:39:23.526Z,76.80
2023-05-03T22:41:50.450Z,77.00
2023-05-03T22:44:17.365Z,77.10
2023-05-03T22:46:44.266Z,77.30
2023-05-03T22:49:11.178Z,77.80
2023-05-03T22:51:38.520Z,77.90
2023-05-03T22:54:05.494Z,78.70
2023-05-03T22:56:32.427Z,78.10
2023-05-03T22:58:59.311Z,79.50
2023-05-03T23:01:26.919Z,79.60
2023-05-03T23:03:54.107Z,79.30
2023-05-03T23:06:21.137Z,79.70
2023-05-03T23:08:48.022Z,79.40
2023-05-03T23:11:15.086Z,79.70
2023-05-03T23:13:42.006Z,79.80
2023-05-03T23:16:10.220Z,79.90
2023-05-03T23:18:37.353Z,80.60
2023-05-03T23:21:04.412Z,80.20
2023-05-03T23:23:31.305Z,80.10
2023-05-03T23:25:58.237Z,80.10
2023-05-03T23:28:25.652Z,80.60
2023-05-03T23:30:53.072Z,80.90
2023-05-03T23:33:20.517Z,81.10
2023-05-03T23:35:48.821Z,81.50
2023-05-03T23:38:15.821Z,81.50
2023-05-03T23:40:42.735Z,81.80
2023-05-03T23:43:09.615Z,82.10
2023-05-03T23:45:36.508Z,82.20
2023-05-03T23:48:03.435Z,82.30
2023-05-03T23:50:30.760Z,82.30
2023-05-03T23:52:58.607Z,82.20
2023-05-03T23:55:25.897Z,82.00
2023-05-03T23:57:52.783Z,82.30
